sensor_id;sensor_type;location;lat;lon;timestamp;P1;durP1;ratioP1;P2;durP2;ratioP2
40471;SDS011;26174;42.908;23.800;2023-01-29T00:03:52;79.05;;;30.67;;
40471;SDS011;26174;42.908;23.800;2023-01-29T00:06:18;66.15;;;30.50;;
40471;SDS011;26174;42.908;23.800;2023-01-29T00:08:43;70.40;;;32.03;;
40471;SDS011;26174;42.908;23.800;2023-01-29T00:11:09;74.65;;;34.83;;
40471;SDS011;26174;42.908;23.800;2023-01-29T00:13:34;82.78;;;34.63;;
40471;SDS011;26174;42.908;23.800;2023-01-29T00:16:01;92.30;;;37.30;;
40471;SDS011;26174;42.908;23.800;2023-01-29T00:18:27;76.18;;;34.13;;
40471;SDS011;26174;42.908;23.800;2023-01-29T00:20:53;75.00;;;34.00;;
40471;SDS011;26174;42.908;23.800;2023-01-29T00:23:19;77.10;;;32.05;;
40471;SDS011;26174;42.908;23.800;2023-01-29T00:25:45;76.32;;;33.10;;
40471;SDS011;26174;42.908;23.800;2023-01-29T00:28:11;68.20;;;29.35;;
40471;SDS011;26174;42.908;23.800;2023-01-29T00:30:36;70.43;;;28.98;;
40471;SDS011;26174;42.908;23.800;2023-01-29T00:33:02;69.53;;;28.73;;
40471;SDS011;26174;42.908;23.800;2023-01-29T00:35:29;82.22;;;33.97;;
40471;SDS011;26174;42.908;23.800;2023-01-29T00:37:55;75.15;;;31.27;;
40471;SDS011;26174;42.908;23.800;2023-01-29T00:40:21;71.38;;;30.20;;
40471;SDS011;26174;42.908;23.800;2023-01-29T00:42:47;75.57;;;30.55;;
40471;SDS011;26174;42.908;23.800;2023-01-29T00:45:31;71.85;;;30.23;;
40471;SDS011;26174;42.908;23.800;2023-01-29T00:47:57;73.25;;;31.58;;
40471;SDS011;26174;42.908;23.800;2023-01-29T00:50:22;62.97;;;28.23;;
40471;SDS011;26174;42.908;23.800;2023-01-29T00:52:48;65.63;;;28.55;;
40471;SDS011;26174;42.908;23.800;2023-01-29T00:55:15;66.63;;;29.45;;
40471;SDS011;26174;42.908;23.800;2023-01-29T00:57:41;68.85;;;28.17;;
40471;SDS011;26174;42.908;23.800;2023-01-29T01:00:08;68.68;;;27.73;;
40471;SDS011;26174;42.908;23.800;2023-01-29T01:02:36;66.32;;;28.00;;
40471;SDS011;26174;42.908;23.800;2023-01-29T01:05:22;65.05;;;27.65;;
40471;SDS011;26174;42.908;23.800;2023-01-29T01:07:51;65.55;;;26.52;;
40471;SDS011;26174;42.908;23.800;2023-01-29T01:10:19;68.53;;;30.50;;
40471;SDS011;26174;42.908;23.800;2023-01-29T01:15:17;77.07;;;32.30;;
40471;SDS011;26174;42.908;23.800;2023-01-29T01:17:44;82.28;;;35.08;;
40471;SDS011;26174;42.908;23.800;2023-01-29T01:20:09;75.25;;;31.85;;
40471;SDS011;26174;42.908;23.800;2023-01-29T01:22:37;75.32;;;30.95;;
40471;SDS011;26174;42.908;23.800;2023-01-29T01:25:03;67.95;;;27.67;;
40471;SDS011;26174;42.908;23.800;2023-01-29T01:27:29;62.50;;;26.75;;
40471;SDS011;26174;42.908;23.800;2023-01-29T01:29:55;60.40;;;27.40;;
40471;SDS011;26174;42.908;23.800;2023-01-29T01:32:20;66.88;;;28.65;;
40471;SDS011;26174;42.908;23.800;2023-01-29T01:34:46;63.65;;;27.98;;
40471;SDS011;26174;42.908;23.800;2023-01-29T01:37:11;66.57;;;28.75;;
40471;SDS011;26174;42.908;23.800;2023-01-29T01:39:37;61.22;;;27.98;;
40471;SDS011;26174;42.908;23.800;2023-01-29T01:42:02;70.10;;;28.73;;
40471;SDS011;26174;42.908;23.800;2023-01-29T01:47:24;70.13;;;28.30;;
40471;SDS011;26174;42.908;23.800;2023-01-29T01:49:55;69.05;;;28.58;;
40471;SDS011;26174;42.908;23.800;2023-01-29T01:52:26;65.85;;;27.05;;
40471;SDS011;26174;42.908;23.800;2023-01-29T01:54:53;67.43;;;28.77;;
40471;SDS011;26174;42.908;23.800;2023-01-29T01:57:20;67.57;;;28.88;;
40471;SDS011;26174;42.908;23.800;2023-01-29T01:59:49;62.38;;;27.95;;
40471;SDS011;26174;42.908;23.800;2023-01-29T02:02:18;76.97;;;32.97;;
40471;SDS011;26174;42.908;23.800;2023-01-29T02:05:02;87.50;;;35.90;;
40471;SDS011;26174;42.908;23.800;2023-01-29T02:07:47;73.28;;;32.50;;
40471;SDS011;26174;42.908;23.800;2023-01-29T02:10:34;76.32;;;32.17;;
40471;SDS011;26174;42.908;23.800;2023-01-29T02:13:05;77.82;;;34.45;;
40471;SDS011;26174;42.908;23.800;2023-01-29T02:15:31;83.63;;;35.63;;
40471;SDS011;26174;42.908;23.800;2023-01-29T02:17:57;86.90;;;35.67;;
40471;SDS011;26174;42.908;23.800;2023-01-29T02:20:24;83.97;;;33.50;;
40471;SDS011;26174;42.908;23.800;2023-01-29T02:23:00;83.10;;;34.33;;
40471;SDS011;26174;42.908;23.800;2023-01-29T02:29:17;86.53;;;36.67;;
40471;SDS011;26174;42.908;23.800;2023-01-29T02:34:59;86.80;;;34.65;;
40471;SDS011;26174;42.908;23.800;2023-01-29T02:45:46;83.13;;;35.85;;
40471;SDS011;26174;42.908;23.800;2023-01-29T02:48:23;90.90;;;38.17;;
40471;SDS011;26174;42.908;23.800;2023-01-29T02:50:57;93.75;;;38.85;;
40471;SDS011;26174;42.908;23.800;2023-01-29T02:53:37;106.65;;;42.28;;
40471;SDS011;26174;42.908;23.800;2023-01-29T02:58:46;93.63;;;41.10;;
40471;SDS011;26174;42.908;23.800;2023-01-29T03:01:32;106.85;;;43.42;;
40471;SDS011;26174;42.908;23.800;2023-01-29T03:04:03;107.28;;;43.90;;
40471;SDS011;26174;42.908;23.800;2023-01-29T03:06:34;102.32;;;40.50;;
40471;SDS011;26174;42.908;23.800;2023-01-29T03:09:04;87.60;;;39.08;;
40471;SDS011;26174;42.908;23.800;2023-01-29T03:11:35;104.03;;;43.20;;
40471;SDS011;26174;42.908;23.800;2023-01-29T03:14:07;101.63;;;41.55;;
40471;SDS011;26174;42.908;23.800;2023-01-29T03:19:31;84.82;;;35.03;;
40471;SDS011;26174;42.908;23.800;2023-01-29T03:22:00;85.65;;;36.30;;
40471;SDS011;26174;42.908;23.800;2023-01-29T03:24:29;82.30;;;35.30;;
40471;SDS011;26174;42.908;23.800;2023-01-29T03:27:40;86.82;;;36.28;;
40471;SDS011;26174;42.908;23.800;2023-01-29T03:30:27;76.15;;;31.15;;
40471;SDS011;26174;42.908;23.800;2023-01-29T03:33:11;87.05;;;32.40;;
40471;SDS011;26174;42.908;23.800;2023-01-29T03:35:39;77.30;;;33.05;;
40471;SDS011;26174;42.908;23.800;2023-01-29T03:38:09;76.32;;;34.90;;
40471;SDS011;26174;42.908;23.800;2023-01-29T03:40:46;86.05;;;36.08;;
40471;SDS011;26174;42.908;23.800;2023-01-29T03:46:01;72.13;;;32.13;;
40471;SDS011;26174;42.908;23.800;2023-01-29T03:51:40;66.38;;;28.02;;
40471;SDS011;26174;42.908;23.800;2023-01-29T04:02:19;55.92;;;24.38;;
40471;SDS011;26174;42.908;23.800;2023-01-29T04:05:01;70.30;;;30.67;;
40471;SDS011;26174;42.908;23.800;2023-01-29T04:07:33;71.45;;;30.42;;
40471;SDS011;26174;42.908;23.800;2023-01-29T04:10:02;72.65;;;31.15;;
40471;SDS011;26174;42.908;23.800;2023-01-29T04:12:38;72.30;;;30.45;;
40471;SDS011;26174;42.908;23.800;2023-01-29T04:15:08;72.80;;;31.02;;
40471;SDS011;26174;42.908;23.800;2023-01-29T04:17:38;73.18;;;29.70;;
40471;SDS011;26174;42.908;23.800;2023-01-29T04:20:06;63.72;;;29.13;;
40471;SDS011;26174;42.908;23.800;2023-01-29T04:22:33;72.95;;;34.28;;
40471;SDS011;26174;42.908;23.800;2023-01-29T04:25:00;60.80;;;26.23;;
40471;SDS011;26174;42.908;23.800;2023-01-29T04:30:32;51.42;;;23.95;;
40471;SDS011;26174;42.908;23.800;2023-01-29T04:35:43;54.70;;;23.25;;
40471;SDS011;26174;42.908;23.800;2023-01-29T04:49:31;67.22;;;28.38;;
40471;SDS011;26174;42.908;23.800;2023-01-29T05:03:01;72.38;;;31.33;;
40471;SDS011;26174;42.908;23.800;2023-01-29T05:05:27;70.40;;;30.42;;
40471;SDS011;26174;42.908;23.800;2023-01-29T05:07:54;63.05;;;28.08;;
40471;SDS011;26174;42.908;23.800;2023-01-29T05:10:21;62.75;;;27.75;;
40471;SDS011;26174;42.908;23.800;2023-01-29T05:12:49;61.17;;;23.52;;
40471;SDS011;26174;42.908;23.800;2023-01-29T05:15:19;53.20;;;23.13;;
40471;SDS011;26174;42.908;23.800;2023-01-29T05:17:48;57.20;;;25.02;;
40471;SDS011;26174;42.908;23.800;2023-01-29T05:20:13;54.38;;;24.20;;
40471;SDS011;26174;42.908;23.800;2023-01-29T05:22:39;77.90;;;32.92;;
40471;SDS011;26174;42.908;23.800;2023-01-29T05:25:24;79.80;;;32.72;;
40471;SDS011;26174;42.908;23.800;2023-01-29T05:27:51;88.18;;;33.95;;
40471;SDS011;26174;42.908;23.800;2023-01-29T05:30:32;74.65;;;33.30;;
40471;SDS011;26174;42.908;23.800;2023-01-29T05:33:00;62.70;;;28.35;;
40471;SDS011;26174;42.908;23.800;2023-01-29T05:35:26;66.97;;;27.15;;
40471;SDS011;26174;42.908;23.800;2023-01-29T05:37:53;59.40;;;27.48;;
40471;SDS011;26174;42.908;23.800;2023-01-29T05:40:21;62.78;;;28.48;;
40471;SDS011;26174;42.908;23.800;2023-01-29T05:42:48;68.57;;;28.00;;
40471;SDS011;26174;42.908;23.800;2023-01-29T05:45:15;69.80;;;29.90;;
40471;SDS011;26174;42.908;23.800;2023-01-29T05:47:40;68.28;;;29.75;;
40471;SDS011;26174;42.908;23.800;2023-01-29T05:50:06;79.72;;;31.83;;
40471;SDS011;26174;42.908;23.800;2023-01-29T05:52:32;72.38;;;31.50;;
40471;SDS011;26174;42.908;23.800;2023-01-29T05:54:58;61.25;;;27.27;;
40471;SDS011;26174;42.908;23.800;2023-01-29T05:57:23;61.10;;;26.67;;
40471;SDS011;26174;42.908;23.800;2023-01-29T05:59:49;59.72;;;26.50;;
40471;SDS011;26174;42.908;23.800;2023-01-29T06:02:14;52.58;;;23.65;;
40471;SDS011;26174;42.908;23.800;2023-01-29T06:04:40;48.08;;;22.90;;
40471;SDS011;26174;42.908;23.800;2023-01-29T06:07:05;43.17;;;20.08;;
40471;SDS011;26174;42.908;23.800;2023-01-29T06:09:31;44.33;;;20.58;;
40471;SDS011;26174;42.908;23.800;2023-01-29T06:11:59;57.97;;;26.77;;
40471;SDS011;26174;42.908;23.800;2023-01-29T06:14:25;57.53;;;25.92;;
40471;SDS011;26174;42.908;23.800;2023-01-29T06:16:50;52.70;;;23.67;;
40471;SDS011;26174;42.908;23.800;2023-01-29T06:19:16;49.50;;;23.83;;
40471;SDS011;26174;42.908;23.800;2023-01-29T06:21:44;52.38;;;22.55;;
40471;SDS011;26174;42.908;23.800;2023-01-29T06:24:10;53.47;;;24.27;;
40471;SDS011;26174;42.908;23.800;2023-01-29T06:26:40;49.33;;;24.52;;
40471;SDS011;26174;42.908;23.800;2023-01-29T06:29:06;57.75;;;26.08;;
40471;SDS011;26174;42.908;23.800;2023-01-29T06:31:31;52.45;;;25.80;;
40471;SDS011;26174;42.908;23.800;2023-01-29T06:33:57;58.08;;;26.48;;
40471;SDS011;26174;42.908;23.800;2023-01-29T06:36:22;53.28;;;24.20;;
40471;SDS011;26174;42.908;23.800;2023-01-29T06:38:51;55.55;;;26.15;;
40471;SDS011;26174;42.908;23.800;2023-01-29T06:41:17;68.50;;;32.28;;
40471;SDS011;26174;42.908;23.800;2023-01-29T06:43:43;68.85;;;30.40;;
40471;SDS011;26174;42.908;23.800;2023-01-29T06:46:10;89.93;;;42.33;;
40471;SDS011;26174;42.908;23.800;2023-01-29T06:48:35;107.15;;;45.58;;
40471;SDS011;26174;42.908;23.800;2023-01-29T06:51:05;71.63;;;33.60;;
40471;SDS011;26174;42.908;23.800;2023-01-29T06:53:32;71.47;;;33.75;;
40471;SDS011;26174;42.908;23.800;2023-01-29T06:58:52;72.53;;;33.05;;
40471;SDS011;26174;42.908;23.800;2023-01-29T07:04:55;62.70;;;28.30;;
40471;SDS011;26174;42.908;23.800;2023-01-29T07:07:20;71.32;;;31.05;;
40471;SDS011;26174;42.908;23.800;2023-01-29T07:09:46;79.70;;;36.67;;
40471;SDS011;26174;42.908;23.800;2023-01-29T07:12:20;66.13;;;29.23;;
40471;SDS011;26174;42.908;23.800;2023-01-29T07:14:48;116.72;;;45.08;;
40471;SDS011;26174;42.908;23.800;2023-01-29T07:17:16;56.90;;;25.63;;
40471;SDS011;26174;42.908;23.800;2023-01-29T07:23:13;66.80;;;31.38;;
40471;SDS011;26174;42.908;23.800;2023-01-29T07:25:51;64.18;;;30.88;;
40471;SDS011;26174;42.908;23.800;2023-01-29T07:29:05;78.38;;;31.98;;
40471;SDS011;26174;42.908;23.800;2023-01-29T07:31:30;84.63;;;35.08;;
40471;SDS011;26174;42.908;23.800;2023-01-29T07:34:04;73.40;;;33.17;;
40471;SDS011;26174;42.908;23.800;2023-01-29T07:36:46;57.92;;;26.52;;
40471;SDS011;26174;42.908;23.800;2023-01-29T07:39:28;63.13;;;31.17;;
40471;SDS011;26174;42.908;23.800;2023-01-29T07:44:25;163.75;;;60.95;;
40471;SDS011;26174;42.908;23.800;2023-01-29T07:46:53;134.75;;;54.28;;
40471;SDS011;26174;42.908;23.800;2023-01-29T07:49:19;128.20;;;53.92;;
40471;SDS011;26174;42.908;23.800;2023-01-29T07:51:45;108.05;;;49.95;;
40471;SDS011;26174;42.908;23.800;2023-01-29T07:54:10;82.22;;;37.38;;
40471;SDS011;26174;42.908;23.800;2023-01-29T07:56:36;70.57;;;34.97;;
40471;SDS011;26174;42.908;23.800;2023-01-29T07:59:01;67.47;;;31.52;;
40471;SDS011;26174;42.908;23.800;2023-01-29T08:01:30;69.82;;;33.20;;
40471;SDS011;26174;42.908;23.800;2023-01-29T08:03:55;64.20;;;28.45;;
40471;SDS011;26174;42.908;23.800;2023-01-29T08:06:21;88.47;;;41.80;;
40471;SDS011;26174;42.908;23.800;2023-01-29T08:08:46;54.53;;;25.05;;
40471;SDS011;26174;42.908;23.800;2023-01-29T08:11:12;54.03;;;24.83;;
40471;SDS011;26174;42.908;23.800;2023-01-29T08:13:37;45.78;;;22.65;;
40471;SDS011;26174;42.908;23.800;2023-01-29T08:16:03;33.88;;;17.23;;
40471;SDS011;26174;42.908;23.800;2023-01-29T08:31:37;56.50;;;24.08;;
40471;SDS011;26174;42.908;23.800;2023-01-29T08:34:12;57.10;;;25.80;;
40471;SDS011;26174;42.908;23.800;2023-01-29T08:36:55;57.88;;;27.10;;
40471;SDS011;26174;42.908;23.800;2023-01-29T08:39:24;55.28;;;24.85;;
40471;SDS011;26174;42.908;23.800;2023-01-29T08:41:51;73.93;;;34.75;;
40471;SDS011;26174;42.908;23.800;2023-01-29T08:50:50;62.63;;;28.20;;
40471;SDS011;26174;42.908;23.800;2023-01-29T08:53:15;62.70;;;26.45;;
40471;SDS011;26174;42.908;23.800;2023-01-29T08:55:42;67.30;;;28.35;;
40471;SDS011;26174;42.908;23.800;2023-01-29T09:01:37;72.95;;;30.80;;
40471;SDS011;26174;42.908;23.800;2023-01-29T09:04:09;72.13;;;30.75;;
40471;SDS011;26174;42.908;23.800;2023-01-29T09:06:34;84.00;;;33.50;;
40471;SDS011;26174;42.908;23.800;2023-01-29T09:09:03;84.40;;;35.05;;
40471;SDS011;26174;42.908;23.800;2023-01-29T09:11:28;65.40;;;30.90;;
40471;SDS011;26174;42.908;23.800;2023-01-29T09:13:54;78.13;;;32.80;;
40471;SDS011;26174;42.908;23.800;2023-01-29T09:16:19;95.18;;;42.50;;
40471;SDS011;26174;42.908;23.800;2023-01-29T09:18:45;98.75;;;41.63;;
40471;SDS011;26174;42.908;23.800;2023-01-29T09:21:11;102.78;;;47.42;;
40471;SDS011;26174;42.908;23.800;2023-01-29T09:23:36;117.82;;;52.97;;
40471;SDS011;26174;42.908;23.800;2023-01-29T09:26:02;124.30;;;52.90;;
40471;SDS011;26174;42.908;23.800;2023-01-29T09:28:28;70.90;;;32.97;;
40471;SDS011;26174;42.908;23.800;2023-01-29T09:30:53;73.90;;;36.53;;
40471;SDS011;26174;42.908;23.800;2023-01-29T09:33:19;115.57;;;50.78;;
40471;SDS011;26174;42.908;23.800;2023-01-29T09:35:45;60.50;;;30.60;;
40471;SDS011;26174;42.908;23.800;2023-01-29T09:38:19;72.57;;;33.00;;
40471;SDS011;26174;42.908;23.800;2023-01-29T09:43:18;68.05;;;31.73;;
40471;SDS011;26174;42.908;23.800;2023-01-29T09:45:52;60.70;;;28.02;;
40471;SDS011;26174;42.908;23.800;2023-01-29T09:48:24;53.70;;;25.23;;
40471;SDS011;26174;42.908;23.800;2023-01-29T09:51:02;68.13;;;29.05;;
40471;SDS011;26174;42.908;23.800;2023-01-29T09:53:34;70.13;;;31.58;;
40471;SDS011;26174;42.908;23.800;2023-01-29T09:56:11;73.18;;;33.22;;
40471;SDS011;26174;42.908;23.800;2023-01-29T09:58:39;62.97;;;30.02;;
40471;SDS011;26174;42.908;23.800;2023-01-29T10:26:02;25.27;;;13.90;;
40471;SDS011;26174;42.908;23.800;2023-01-29T10:30:59;31.10;;;15.27;;
40471;SDS011;26174;42.908;23.800;2023-01-29T10:33:36;38.17;;;18.10;;
40471;SDS011;26174;42.908;23.800;2023-01-29T10:36:06;37.45;;;17.77;;
40471;SDS011;26174;42.908;23.800;2023-01-29T10:41:15;30.00;;;16.02;;
40471;SDS011;26174;42.908;23.800;2023-01-29T10:43:50;34.28;;;14.98;;
40471;SDS011;26174;42.908;23.800;2023-01-29T10:46:27;26.38;;;12.50;;
40471;SDS011;26174;42.908;23.800;2023-01-29T10:52:07;40.63;;;16.85;;
40471;SDS011;26174;42.908;23.800;2023-01-29T11:00:11;25.90;;;13.52;;
40471;SDS011;26174;42.908;23.800;2023-01-29T11:02:42;36.33;;;16.45;;
40471;SDS011;26174;42.908;23.800;2023-01-29T11:05:19;82.78;;;32.08;;
40471;SDS011;26174;42.908;23.800;2023-01-29T11:07:53;31.48;;;13.88;;
40471;SDS011;26174;42.908;23.800;2023-01-29T11:10:25;22.55;;;11.00;;
40471;SDS011;26174;42.908;23.800;2023-01-29T11:12:51;23.95;;;10.30;;
40471;SDS011;26174;42.908;23.800;2023-01-29T11:15:18;26.45;;;13.05;;
40471;SDS011;26174;42.908;23.800;2023-01-29T11:20:45;30.23;;;14.93;;
40471;SDS011;26174;42.908;23.800;2023-01-29T11:23:24;39.40;;;17.42;;
40471;SDS011;26174;42.908;23.800;2023-01-29T11:25:54;41.47;;;19.52;;
40471;SDS011;26174;42.908;23.800;2023-01-29T11:28:34;34.72;;;17.70;;
40471;SDS011;26174;42.908;23.800;2023-01-29T11:33:52;33.70;;;16.97;;
40471;SDS011;26174;42.908;23.800;2023-01-29T11:36:36;45.35;;;17.52;;
40471;SDS011;26174;42.908;23.800;2023-01-29T11:39:11;29.77;;;14.02;;
40471;SDS011;26174;42.908;23.800;2023-01-29T11:41:43;38.30;;;18.58;;
40471;SDS011;26174;42.908;23.800;2023-01-29T11:44:25;39.42;;;18.75;;
40471;SDS011;26174;42.908;23.800;2023-01-29T11:46:54;53.72;;;24.92;;
40471;SDS011;26174;42.908;23.800;2023-01-29T11:49:32;46.85;;;24.48;;
40471;SDS011;26174;42.908;23.800;2023-01-29T11:52:00;44.13;;;22.63;;
40471;SDS011;26174;42.908;23.800;2023-01-29T11:54:28;42.85;;;22.50;;
40471;SDS011;26174;42.908;23.800;2023-01-29T11:56:57;45.72;;;23.38;;
40471;SDS011;26174;42.908;23.800;2023-01-29T12:01:54;35.05;;;17.05;;
40471;SDS011;26174;42.908;23.800;2023-01-29T12:04:21;46.65;;;22.25;;
40471;SDS011;26174;42.908;23.800;2023-01-29T12:06:51;30.30;;;15.68;;
40471;SDS011;26174;42.908;23.800;2023-01-29T12:09:24;34.45;;;18.48;;
40471;SDS011;26174;42.908;23.800;2023-01-29T12:11:53;37.13;;;16.98;;
40471;SDS011;26174;42.908;23.800;2023-01-29T12:14:32;34.25;;;17.60;;
40471;SDS011;26174;42.908;23.800;2023-01-29T12:22:26;37.75;;;20.50;;
40471;SDS011;26174;42.908;23.800;2023-01-29T12:28:11;37.78;;;19.05;;
40471;SDS011;26174;42.908;23.800;2023-01-29T12:38:21;27.33;;;13.15;;
40471;SDS011;26174;42.908;23.800;2023-01-29T12:40:52;22.63;;;11.85;;
40471;SDS011;26174;42.908;23.800;2023-01-29T12:43:43;42.40;;;18.50;;
40471;SDS011;26174;42.908;23.800;2023-01-29T12:46:44;27.35;;;13.70;;
40471;SDS011;26174;42.908;23.800;2023-01-29T12:49:26;33.53;;;16.70;;
40471;SDS011;26174;42.908;23.800;2023-01-29T12:52:14;24.00;;;11.95;;
40471;SDS011;26174;42.908;23.800;2023-01-29T12:54:59;35.60;;;17.92;;
40471;SDS011;26174;42.908;23.800;2023-01-29T12:57:41;50.97;;;22.40;;
40471;SDS011;26174;42.908;23.800;2023-01-29T13:00:21;36.97;;;18.52;;
40471;SDS011;26174;42.908;23.800;2023-01-29T13:05:39;54.42;;;28.50;;
40471;SDS011;26174;42.908;23.800;2023-01-29T13:08:31;36.03;;;18.77;;
40471;SDS011;26174;42.908;23.800;2023-01-29T13:11:28;33.78;;;17.15;;
40471;SDS011;26174;42.908;23.800;2023-01-29T13:13:59;39.35;;;18.08;;
40471;SDS011;26174;42.908;23.800;2023-01-29T13:16:30;43.97;;;20.73;;
40471;SDS011;26174;42.908;23.800;2023-01-29T13:18:59;58.33;;;26.35;;
40471;SDS011;26174;42.908;23.800;2023-01-29T13:21:29;40.05;;;19.83;;
40471;SDS011;26174;42.908;23.800;2023-01-29T13:23:59;39.58;;;20.20;;
40471;SDS011;26174;42.908;23.800;2023-01-29T13:26:28;30.58;;;14.93;;
40471;SDS011;26174;42.908;23.800;2023-01-29T13:28:54;19.42;;;11.32;;
40471;SDS011;26174;42.908;23.800;2023-01-29T13:34:00;32.55;;;16.50;;
40471;SDS011;26174;42.908;23.800;2023-01-29T13:36:46;30.30;;;15.02;;
40471;SDS011;26174;42.908;23.800;2023-01-29T13:41:53;28.55;;;14.60;;
40471;SDS011;26174;42.908;23.800;2023-01-29T13:46:47;35.13;;;17.23;;
40471;SDS011;26174;42.908;23.800;2023-01-29T13:49:21;30.42;;;14.68;;
40471;SDS011;26174;42.908;23.800;2023-01-29T13:51:56;27.30;;;12.70;;
40471;SDS011;26174;42.908;23.800;2023-01-29T13:54:23;29.08;;;13.88;;
40471;SDS011;26174;42.908;23.800;2023-01-29T13:56:56;37.30;;;19.20;;
40471;SDS011;26174;42.908;23.800;2023-01-29T14:00:10;48.45;;;24.02;;
40471;SDS011;26174;42.908;23.800;2023-01-29T14:02:21;56.00;;;26.20;;
40471;SDS011;26174;42.908;23.800;2023-01-29T14:04:49;54.47;;;26.50;;
40471;SDS011;26174;42.908;23.800;2023-01-29T14:08:00;60.50;;;29.65;;
40471;SDS011;26174;42.908;23.800;2023-01-29T14:10:14;57.40;;;29.52;;
40471;SDS011;26174;42.908;23.800;2023-01-29T14:12:41;61.92;;;29.83;;
40471;SDS011;26174;42.908;23.800;2023-01-29T14:15:15;59.50;;;28.58;;
40471;SDS011;26174;42.908;23.800;2023-01-29T14:18:02;61.35;;;32.38;;
40471;SDS011;26174;42.908;23.800;2023-01-29T14:26:02;62.47;;;29.75;;
40471;SDS011;26174;42.908;23.800;2023-01-29T14:28:32;44.17;;;24.10;;
40471;SDS011;26174;42.908;23.800;2023-01-29T14:30:59;58.22;;;27.42;;
40471;SDS011;26174;42.908;23.800;2023-01-29T14:35:58;49.75;;;24.95;;
40471;SDS011;26174;42.908;23.800;2023-01-29T14:38:28;53.72;;;26.52;;
40471;SDS011;26174;42.908;23.800;2023-01-29T14:41:28;42.95;;;22.35;;
40471;SDS011;26174;42.908;23.800;2023-01-29T14:50:37;43.60;;;22.65;;
40471;SDS011;26174;42.908;23.800;2023-01-29T14:52:53;46.35;;;23.00;;
40471;SDS011;26174;42.908;23.800;2023-01-29T14:55:42;46.83;;;23.75;;
40471;SDS011;26174;42.908;23.800;2023-01-29T14:58:15;47.22;;;23.05;;
40471;SDS011;26174;42.908;23.800;2023-01-29T15:00:44;45.83;;;22.73;;
40471;SDS011;26174;42.908;23.800;2023-01-29T15:03:12;41.38;;;21.42;;
40471;SDS011;26174;42.908;23.800;2023-01-29T15:05:43;48.55;;;22.10;;
40471;SDS011;26174;42.908;23.800;2023-01-29T15:08:16;47.80;;;24.90;;
40471;SDS011;26174;42.908;23.800;2023-01-29T15:10:51;49.65;;;25.05;;
40471;SDS011;26174;42.908;23.800;2023-01-29T15:16:34;57.63;;;27.90;;
40471;SDS011;26174;42.908;23.800;2023-01-29T15:19:14;55.05;;;26.65;;
40471;SDS011;26174;42.908;23.800;2023-01-29T15:22:02;54.60;;;25.92;;
40471;SDS011;26174;42.908;23.800;2023-01-29T15:24:29;48.67;;;23.35;;
40471;SDS011;26174;42.908;23.800;2023-01-29T15:26:55;47.75;;;23.52;;
40471;SDS011;26174;42.908;23.800;2023-01-29T15:29:22;46.63;;;22.52;;
40471;SDS011;26174;42.908;23.800;2023-01-29T15:31:56;46.38;;;21.50;;
40471;SDS011;26174;42.908;23.800;2023-01-29T15:34:24;53.08;;;26.30;;
40471;SDS011;26174;42.908;23.800;2023-01-29T15:36:50;62.47;;;28.83;;
40471;SDS011;26174;42.908;23.800;2023-01-29T15:41:45;113.07;;;49.15;;
40471;SDS011;26174;42.908;23.800;2023-01-29T15:44:18;116.10;;;49.95;;
40471;SDS011;26174;42.908;23.800;2023-01-29T15:46:51;68.13;;;32.38;;
40471;SDS011;26174;42.908;23.800;2023-01-29T15:49:32;73.70;;;35.55;;
40471;SDS011;26174;42.908;23.800;2023-01-29T15:52:01;78.43;;;35.95;;
40471;SDS011;26174;42.908;23.800;2023-01-29T15:54:29;61.38;;;32.33;;
40471;SDS011;26174;42.908;23.800;2023-01-29T15:56:55;70.40;;;33.25;;
40471;SDS011;26174;42.908;23.800;2023-01-29T15:59:23;75.95;;;37.63;;
40471;SDS011;26174;42.908;23.800;2023-01-29T16:01:50;79.68;;;38.00;;
40471;SDS011;26174;42.908;23.800;2023-01-29T16:04:23;84.90;;;38.53;;
40471;SDS011;26174;42.908;23.800;2023-01-29T16:06:52;78.70;;;37.95;;
40471;SDS011;26174;42.908;23.800;2023-01-29T16:09:20;74.50;;;37.85;;
40471;SDS011;26174;42.908;23.800;2023-01-29T16:11:50;109.75;;;46.65;;
40471;SDS011;26174;42.908;23.800;2023-01-29T16:14:19;91.00;;;44.38;;
40471;SDS011;26174;42.908;23.800;2023-01-29T16:16:53;95.78;;;46.13;;
40471;SDS011;26174;42.908;23.800;2023-01-29T16:20:03;96.72;;;46.00;;
40471;SDS011;26174;42.908;23.800;2023-01-29T16:22:19;86.60;;;42.78;;
40471;SDS011;26174;42.908;23.800;2023-01-29T16:24:44;96.90;;;45.45;;
40471;SDS011;26174;42.908;23.800;2023-01-29T16:27:12;97.35;;;42.85;;
40471;SDS011;26174;42.908;23.800;2023-01-29T16:29:38;100.53;;;46.10;;
40471;SDS011;26174;42.908;23.800;2023-01-29T16:32:04;87.25;;;39.92;;
40471;SDS011;26174;42.908;23.800;2023-01-29T16:34:34;88.60;;;43.78;;
40471;SDS011;26174;42.908;23.800;2023-01-29T16:37:03;91.53;;;45.13;;
40471;SDS011;26174;42.908;23.800;2023-01-29T16:39:42;89.20;;;43.03;;
40471;SDS011;26174;42.908;23.800;2023-01-29T16:45:00;163.55;;;65.20;;
40471;SDS011;26174;42.908;23.800;2023-01-29T16:55:22;161.32;;;65.20;;
40471;SDS011;26174;42.908;23.800;2023-01-29T16:57:53;157.35;;;68.07;;
40471;SDS011;26174;42.908;23.800;2023-01-29T17:00:21;207.32;;;92.55;;
40471;SDS011;26174;42.908;23.800;2023-01-29T17:02:49;180.27;;;76.70;;
40471;SDS011;26174;42.908;23.800;2023-01-29T17:05:21;154.38;;;66.53;;
40471;SDS011;26174;42.908;23.800;2023-01-29T17:07:56;163.50;;;72.38;;
40471;SDS011;26174;42.908;23.800;2023-01-29T17:10:35;136.93;;;61.25;;
40471;SDS011;26174;42.908;23.800;2023-01-29T17:13:01;140.85;;;62.25;;
40471;SDS011;26174;42.908;23.800;2023-01-29T17:15:35;130.80;;;57.70;;
40471;SDS011;26174;42.908;23.800;2023-01-29T17:20:40;168.15;;;74.47;;
40471;SDS011;26174;42.908;23.800;2023-01-29T17:23:05;171.10;;;77.68;;
40471;SDS011;26174;42.908;23.800;2023-01-29T17:25:31;133.52;;;55.80;;
40471;SDS011;26174;42.908;23.800;2023-01-29T17:27:58;133.90;;;55.58;;
40471;SDS011;26174;42.908;23.800;2023-01-29T17:30:24;127.18;;;55.33;;
40471;SDS011;26174;42.908;23.800;2023-01-29T17:32:54;131.75;;;52.55;;
40471;SDS011;26174;42.908;23.800;2023-01-29T17:35:19;116.72;;;51.92;;
40471;SDS011;26174;42.908;23.800;2023-01-29T17:37:48;95.75;;;46.70;;
40471;SDS011;26174;42.908;23.800;2023-01-29T17:40:20;89.93;;;41.30;;
40471;SDS011;26174;42.908;23.800;2023-01-29T17:42:50;85.18;;;41.13;;
40471;SDS011;26174;42.908;23.800;2023-01-29T17:45:15;120.07;;;50.22;;
40471;SDS011;26174;42.908;23.800;2023-01-29T17:47:41;169.10;;;73.90;;
40471;SDS011;26174;42.908;23.800;2023-01-29T17:53:01;139.77;;;59.30;;
40471;SDS011;26174;42.908;23.800;2023-01-29T17:55:27;111.80;;;50.88;;
40471;SDS011;26174;42.908;23.800;2023-01-29T17:57:52;108.28;;;48.03;;
40471;SDS011;26174;42.908;23.800;2023-01-29T18:00:19;96.57;;;43.97;;
40471;SDS011;26174;42.908;23.800;2023-01-29T18:02:46;169.82;;;70.32;;
40471;SDS011;26174;42.908;23.800;2023-01-29T18:05:12;132.15;;;58.22;;